Time;durP1;ratioP1;P1;durP2;ratioP2;P2;SDS_P1;SDS_P2;PMS_P1;PMS_P2;Temp;Humidity;BMP_temperature;BMP_pressure;BME280_temperature;BME280_humidity;BME280_pressure;Samples;Min_cycle;Max_cycle;Signal;HPM_P1;HPM_P2
2022/10/18 03:57:24;;;;;;;20.85;12.57;;;;;;;10.61;80.75;101937.88;5606490;31;78842;-55
2022/10/18 04:00:27;;;;;;;17.23;11.98;;;;;;;10.61;80.75;101937.88;5584163;31;34262;-55
2022/10/18 04:03:29;;;;;;;18.73;12.63;;;;;;;10.11;82.28;101944.72;5584032;32;33574;-55
2022/10/18 04:06:31;;;;;;;18.45;12.50;;;;;;;10.25;82.19;101933.72;5583995;32;33682;-56
2022/10/18 04:09:33;;;;;;;18.87;11.77;;;;;;;10.21;82.04;101936.06;5584004;32;33628;-56
2022/10/18 04:12:35;;;;;;;16.37;12.63;;;;;;;10.25;82.04;101936.41;5583917;31;33660;-56
2022/10/18 04:15:38;;;;;;;17.58;11.60;;;;;;;10.26;82.22;101936.19;5583846;32;34450;-56
2022/10/18 04:18:40;;;;;;;16.12;12.37;;;;;;;10.38;81.96;101930.78;5583687;31;33567;-56
2022/10/18 04:21:42;;;;;;;20.48;13.65;;;;;;;10.42;81.74;101928.44;5583883;31;33388;-56
2022/10/18 04:24:44;;;;;;;16.55;12.20;;;;;;;10.29;81.93;101929.53;5583540;31;34230;-56
2022/10/18 04:27:46;;;;;;;40.03;13.93;;;;;;;10.35;81.30;101924.03;5577737;31;33659;-56
2022/10/18 04:30:52;;;;;;;21.08;12.85;;;;;;;10.28;81.36;101925.22;5564036;32;33694;-56
2022/10/18 04:33:54;;;;;;;20.05;12.48;;;;;;;10.36;81.39;101924.81;5564055;32;33796;-56
2022/10/18 04:36:56;;;;;;;18.60;12.48;;;;;;;10.37;80.53;101929.16;5564359;31;33703;-56
2022/10/18 04:39:59;;;;;;;18.25;12.88;;;;;;;10.37;79.98;101929.16;5583609;31;34321;-56
2022/10/18 04:43:01;;;;;;;17.65;11.82;;;;;;;10.31;80.01;101928.25;5580026;31;34254;-55
2022/10/18 04:46:03;;;;;;;20.23;12.25;;;;;;;10.24;80.15;101922.19;5569738;32;33600;-56
2022/10/18 04:49:05;;;;;;;18.10;12.93;;;;;;;10.19;80.18;101923.94;5576797;32;33769;-55
2022/10/18 04:52:08;;;;;;;18.70;12.93;;;;;;;10.13;80.44;101920.34;5583571;32;34345;-56
2022/10/18 04:55:10;;;;;;;21.55;13.77;;;;;;;10.12;80.06;101914.19;5580258;31;34426;-56
2022/10/18 04:58:12;;;;;;;18.77;13.18;;;;;;;10.11;80.09;101909.09;5583221;32;33204;-56
2022/10/18 05:01:15;;;;;;;18.90;13.27;;;;;;;10.08;80.24;101907.69;5582461;32;33801;-56
2022/10/18 05:04:18;;;;;;;19.12;13.40;;;;;;;10.09;79.96;101908.50;5581197;31;33571;-56
2022/10/18 05:07:20;;;;;;;36.45;13.48;;;;;;;10.02;79.83;101899.78;5572645;31;34216;-56
2022/10/18 05:10:22;;;;;;;20.40;13.05;;;;;;;10.12;79.68;101903.47;5568619;32;33736;-56
2022/10/18 05:13:25;;;;;;;22.25;13.62;;;;;;;10.01;80.00;101900.84;5568255;32;34259;-56
2022/10/18 05:16:27;;;;;;;21.20;13.48;;;;;;;10.03;79.92;101907.59;5569433;32;33733;-56
2022/10/18 05:19:29;;;;;;;20.60;14.10;;;;;;;10.05;79.40;101907.34;5569934;32;33703;-56
2022/10/18 05:22:32;;;;;;;27.05;13.90;;;;;;;10.02;79.62;101907.81;5565447;32;33805;-56
2022/10/18 05:25:37;;;;;;;22.58;13.52;;;;;;;9.94;79.99;101911.72;5568866;32;33577;-56
2022/10/18 05:28:39;;;;;;;24.10;13.77;;;;;;;9.99;79.95;101894.91;5565904;31;33682;-56
2022/10/18 05:31:42;;;;;;;26.08;14.55;;;;;;;10.03;80.00;101901.41;5568844;32;34346;-56
2022/10/18 05:34:44;;;;;;;27.62;14.38;;;;;;;10.01;79.81;101911.56;5566237;32;33714;-56
2022/10/18 05:37:47;;;;;;;42.00;14.65;;;;;;;9.96;nan;101912.25;5565766;32;33686;-56
2022/10/18 05:40:49;;;;;;;21.42;14.82;;;;;;;10.04;80.11;101911.09;5568269;32;33612;-56
2022/10/18 05:43:51;;;;;;;19.77;13.32;;;;;;;9.95;80.85;101912.50;5567137;32;33472;-56
2022/10/18 05:46:53;;;;;;;22.67;13.88;;;;;;;10.03;80.80;101912.13;5568747;32;33677;-56
2022/10/18 05:49:56;;;;;;;24.15;14.45;;;;;;;10.13;80.68;101909.62;5566704;32;33771;-56
2022/10/18 05:52:58;;;;;;;36.65;15.27;;;;;;;10.05;80.55;101896.62;5564491;32;33714;-56
2022/10/18 05:56:13;;;;;;;27.80;14.85;;;;;;;10.07;81.18;101899.91;5567427;32;34245;-56
2022/10/18 05:59:15;;;;;;;54.60;17.20;;;;;;;10.12;81.28;101910.69;5566689;32;33888;-57
2022/10/18 06:02:17;;;;;;;51.47;17.30;;;;;;;10.27;80.85;101905.66;5567024;32;32960;-56
2022/10/18 06:05:20;;;;;;;33.08;16.87;;;;;;;10.28;81.44;101907.28;5568828;32;34258;-57
2022/10/18 06:08:22;;;;;;;43.03;17.75;;;;;;;10.39;81.91;101919.00;5567320;32;34325;-55
2022/10/18 06:11:25;;;;;;;42.85;18.02;;;;;;;10.45;81.84;101910.00;5565445;32;33644;-56
2022/10/18 06:14:27;;;;;;;33.85;17.30;;;;;;;10.55;81.25;101910.16;5563033;32;33685;-56
2022/10/18 06:17:29;;;;;;;41.75;18.65;;;;;;;10.61;81.72;101912.94;5565922;32;33693;-56
2022/10/18 06:20:33;;;;;;;40.03;17.35;;;;;;;10.61;82.42;101911.06;5567414;32;33809;-56
2022/10/18 06:23:36;;;;;;;46.60;17.35;;;;;;;10.63;83.17;101905.44;5566997;32;32081;-56
2022/10/18 06:26:38;;;;;;;49.15;18.00;;;;;;;10.76;82.64;101919.38;5565787;32;33603;-56
2022/10/18 06:29:40;;;;;;;100.43;20.33;;;;;;;10.92;82.44;101924.97;5566869;31;33701;-56
2022/10/18 06:32:42;;;;;;;31.20;17.62;;;;;;;11.05;82.60;101930.00;5566581;32;33804;-56
2022/10/18 06:36:05;;;;;;;41.00;18.30;;;;;;;11.11;82.62;101925.53;5568861;32;33634;-56
2022/10/18 06:39:09;;;;;;;33.97;17.90;;;;;;;11.20;82.33;101924.06;5567973;32;33642;-57
2022/10/18 06:42:11;;;;;;;36.78;19.70;;;;;;;11.31;81.94;101925.03;5567316;32;33300;-56
2022/10/18 06:45:14;;;;;;;40.88;19.25;;;;;;;11.40;82.17;101921.66;5565722;32;33754;-56
2022/10/18 06:48:18;;;;;;;37.42;19.73;;;;;;;11.48;82.96;101926.59;5553063;32;34383;-56
2022/10/18 06:51:21;;;;;;;29.08;18.00;;;;;;;11.61;82.82;101922.72;5558698;32;33593;-56
2022/10/18 06:54:23;;;;;;;30.25;18.62;;;;;;;11.70;84.15;101920.44;5566260;32;34703;-56
2022/10/18 06:57:25;;;;;;;32.53;18.65;;;;;;;11.83;84.10;101925.44;5567887;32;34267;-56
2022/10/18 07:00:27;;;;;;;28.80;20.12;;;;;;;11.96;84.87;101926.97;5566511;32;33701;-56
2022/10/18 07:03:30;;;;;;;28.12;19.55;;;;;;;12.15;82.43;101924.72;5565811;32;33792;-57
2022/10/18 07:06:32;;;;;;;28.73;19.42;;;;;;;12.36;82.49;101949.97;5567347;32;33613;-56
2022/10/18 07:09:34;;;;;;;29.42;19.98;;;;;;;12.45;80.07;101940.38;5565383;32;32760;-56
2022/10/18 07:12:37;;;;;;;25.92;19.50;;;;;;;12.56;81.52;101935.91;5560383;32;33595;-56
2022/10/18 07:15:41;;;;;;;37.58;20.95;;;;;;;12.77;80.11;101931.50;5564547;32;33574;-56
2022/10/18 07:18:48;;;;;;;41.85;20.98;;;;;;;13.05;80.48;101928.50;5566431;32;34396;-56
2022/10/18 07:21:50;;;;;;;40.53;22.17;;;;;;;13.18;75.03;101919.16;5566960;32;33653;-56
2022/10/18 07:24:52;;;;;;;30.35;19.98;;;;;;;13.18;76.42;101921.87;5567028;32;34830;-57
2022/10/18 07:27:54;;;;;;;57.50;21.75;;;;;;;13.20;76.37;101921.59;5556327;32;33739;-56
2022/10/18 07:31:03;;;;;;;71.87;23.48;;;;;;;13.33;75.28;101916.56;5564780;32;34266;-56
2022/10/18 07:34:11;;;;;;;42.50;21.10;;;;;;;13.37;75.20;101906.09;5564241;32;33609;-56
2022/10/18 07:37:13;;;;;;;25.52;19.87;;;;;;;13.47;74.38;101908.84;5553837;32;33663;-56
2022/10/18 07:40:15;;;;;;;115.97;23.75;;;;;;;13.53;71.81;101904.28;5564860;32;32815;-56
2022/10/18 07:43:17;;;;;;;32.65;19.33;;;;;;;13.70;72.37;101909.47;5563561;32;34390;-56
2022/10/18 07:46:21;;;;;;;27.70;19.27;;;;;;;13.83;68.27;101906.28;5566171;32;34392;-56
2022/10/18 07:49:23;;;;;;;433.42;42.60;;;;;;;13.82;68.77;101915.47;5565257;32;33823;-56
2022/10/18 07:52:25;;;;;;;51.53;20.67;;;;;;;13.82;69.72;101902.78;5562772;32;33572;-56
2022/10/18 07:55:27;;;;;;;26.00;18.75;;;;;;;13.89;69.06;101899.84;5565706;32;34348;-56
2022/10/18 07:58:31;;;;;;;30.90;18.52;;;;;;;14.02;65.87;101891.25;5567297;32;34486;-56
2022/10/18 08:01:33;;;;;;;28.85;18.25;;;;;;;13.99;66.24;101901.75;5565916;32;34355;-56
2022/10/18 08:04:36;;;;;;;23.30;19.58;;;;;;;14.15;66.19;101897.22;5566838;32;33570;-56
2022/10/18 08:07:38;;;;;;;48.10;20.08;;;;;;;14.18;66.00;101894.81;5565503;32;34212;-56
2022/10/18 08:10:40;;;;;;;33.92;19.92;;;;;;;14.20;67.54;101891.81;5566337;32;34419;-56
2022/10/18 08:13:44;;;;;;;34.95;21.25;;;;;;;14.26;67.24;101888.88;5565165;32;33611;-56
2022/10/18 08:16:47;;;;;;;42.15;21.00;;;;;;;14.21;66.24;101880.78;5558598;32;34074;-56
2022/10/18 08:19:49;;;;;;;34.10;19.62;;;;;;;14.23;67.52;101880.50;5564536;32;33571;-57
2022/10/18 08:23:11;;;;;;;32.63;20.23;;;;;;;14.37;66.95;101881.63;5566441;32;33651;-56
2022/10/18 08:26:16;;;;;;;469.90;50.12;;;;;;;14.39;66.21;101878.63;5566165;31;33684;-57
2022/10/18 08:29:18;;;;;;;66.03;20.70;;;;;;;14.50;66.22;101873.00;5564863;32;32904;-56
2022/10/18 08:32:29;;;;;;;26.48;15.90;;;;;;;14.67;64.10;101869.19;5551676;32;34386;-56
2022/10/18 08:35:32;;;;;;;21.60;15.25;;;;;;;14.87;59.93;101863.81;5551582;32;34142;-56
2022/10/18 08:38:36;;;;;;;24.50;15.48;;;;;;;14.90;59.90;101859.72;5557853;32;34820;-56
2022/10/18 08:42:05;;;;;;;20.65;15.43;;;;;;;14.85;60.32;101855.16;5558748;32;34294;-56
2022/10/18 08:45:11;;;;;;;20.80;14.48;;;;;;;14.83;60.67;101851.91;5564073;32;33668;-56
2022/10/18 08:48:48;;;;;;;23.08;14.27;;;;;;;14.92;62.25;101841.38;5562875;32;34415;-56
2022/10/18 08:51:51;;;;;;;22.90;14.20;;;;;;;14.95;61.02;101849.72;5569874;32;34213;-56
2022/10/18 08:55:28;;;;;;;23.52;13.55;;;;;;;15.00;61.17;101847.03;5562974;32;33669;-56
2022/10/18 08:58:32;;;;;;;23.35;13.27;;;;;;;15.06;60.60;101833.50;5557481;32;33456;-56
2022/10/18 09:01:51;;;;;;;22.58;13.02;;;;;;;15.08;59.08;101832.16;5564581;31;33724;-57
2022/10/18 09:04:59;;;;;;;18.85;13.07;;;;;;;15.16;58.36;101822.66;5563866;32;34376;-56
2022/10/18 09:08:20;;;;;;;15.77;12.02;;;;;;;15.21;58.78;101820.75;5566858;32;34401;-56
2022/10/18 09:11:36;;;;;;;43.28;13.07;;;;;;;15.23;58.73;101815.06;5565708;32;33068;-56
2022/10/18 09:15:18;;;;;;;17.50;11.70;;;;;;;15.30;59.54;101815.59;5567079;32;34341;-56
2022/10/18 09:18:46;;;;;;;18.23;11.43;;;;;;;15.40;58.00;101812.84;5564966;32;33779;-56
2022/10/18 09:21:54;;;;;;;18.52;11.80;;;;;;;15.44;56.79;101805.00;5563577;32;34435;-56
2022/10/18 09:24:59;;;;;;;14.70;11.65;;;;;;;15.58;55.84;101805.19;5563983;32;33942;-57
2022/10/18 09:28:32;;;;;;;26.50;12.55;;;;;;;15.65;56.10;101798.38;5563529;31;33763;-56
2022/10/18 09:31:47;;;;;;;18.62;11.65;;;;;;;15.79;55.87;101801.28;5564752;32;33645;-56
2022/10/18 09:35:01;;;;;;;33.00;11.95;;;;;;;15.69;55.99;101790.53;5556303;32;33728;-56
2022/10/18 09:38:08;;;;;;;16.17;10.80;;;;;;;15.71;57.45;101796.50;5558511;32;33926;-56
2022/10/18 09:41:25;;;;;;;71.15;15.35;;;;;;;15.85;56.46;101802.87;5560793;32;34276;-56
2022/10/18 09:44:35;;;;;;;20.37;11.05;;;;;;;15.86;57.07;101793.72;5564572;32;33751;-57
2022/10/18 09:47:46;;;;;;;18.73;9.43;;;;;;;15.96;55.34;101785.50;5568869;32;34390;-56
2022/10/18 09:50:59;;;;;;;15.15;9.98;;;;;;;15.97;54.02;101778.19;5559221;32;34141;-56
2022/10/18 09:54:10;;;;;;;14.05;9.63;;;;;;;16.06;54.34;101771.09;5567301;32;34353;-56
2022/10/18 09:57:20;;;;;;;17.70;10.57;;;;;;;16.12;54.09;101766.44;5563010;32;34016;-56
2022/10/18 10:00:37;;;;;;;13.82;9.85;;;;;;;16.27;53.96;101766.31;5559185;31;33668;-56
2022/10/18 10:03:41;;;;;;;17.02;9.88;;;;;;;16.23;54.11;101761.78;5568132;31;33730;-56
2022/10/18 10:06:49;;;;;;;15.18;8.63;;;;;;;16.38;51.65;101758.91;5565829;32;34329;-57
2022/10/18 10:10:07;;;;;;;14.87;8.38;;;;;;;16.48;51.32;101758.00;5564720;32;34549;-57
2022/10/18 10:13:21;;;;;;;13.90;8.10;;;;;;;16.40;51.87;101760.25;5564952;32;33089;-56
2022/10/18 10:16:25;;;;;;;12.55;8.00;;;;;;;16.49;50.31;101744.19;5562276;32;34360;-56
2022/10/18 10:19:31;;;;;;;19.02;8.02;;;;;;;16.47;50.24;101738.25;5562222;32;33396;-57
2022/10/18 10:22:36;;;;;;;10.40;7.22;;;;;;;16.62;49.56;101737.28;5563250;32;35314;-57
2022/10/18 10:25:39;;;;;;;9.60;8.02;;;;;;;16.59;49.36;101733.25;5566526;32;33765;-57
2022/10/18 10:28:45;;;;;;;10.57;7.47;;;;;;;16.62;49.85;101729.16;5563757;32;34521;-56
2022/10/18 10:32:01;;;;;;;13.82;7.60;;;;;;;16.69;49.70;101721.50;5567674;32;33688;-56
2022/10/18 10:35:20;;;;;;;15.52;7.50;;;;;;;16.72;49.85;101722.81;5557065;32;33571;-56
2022/10/18 10:38:43;;;;;;;19.60;7.62;;;;;;;16.76;50.01;101718.47;5562804;32;33784;-57
2022/10/18 10:41:49;;;;;;;10.32;6.43;;;;;;;16.77;50.94;101712.75;5563996;32;33619;-57
2022/10/18 10:44:54;;;;;;;11.35;7.90;;;;;;;16.77;50.46;101703.84;5561158;32;34365;-56
2022/10/18 10:48:07;;;;;;;11.70;7.78;;;;;;;16.81;50.07;101691.31;5564138;32;33725;-57
2022/10/18 10:51:09;;;;;;;14.95;8.05;;;;;;;16.82;50.13;101690.22;5563130;31;34315;-57
2022/10/18 10:54:15;;;;;;;12.13;7.82;;;;;;;16.84;50.47;101694.25;5561382;32;33545;-56
2022/10/18 10:57:24;;;;;;;15.15;8.00;;;;;;;16.89;50.02;101688.78;5551135;32;33634;-56
2022/10/18 11:00:36;;;;;;;12.35;7.07;;;;;;;16.91;50.51;101686.56;5554004;32;33665;-56
2022/10/18 11:03:45;;;;;;;11.00;6.93;;;;;;;17.06;49.35;101682.88;5568145;32;34263;-57
2022/10/18 11:06:52;;;;;;;12.30;7.35;;;;;;;17.06;50.51;101673.94;5563653;32;33671;-56
2022/10/18 11:10:10;;;;;;;12.00;8.00;;;;;;;17.11;48.84;101673.84;5564438;31;33584;-56
2022/10/18 11:13:40;;;;;;;11.43;7.22;;;;;;;17.20;48.74;101660.47;5563423;31;33937;-56
2022/10/18 11:17:09;;;;;;;10.98;7.05;;;;;;;17.32;48.53;101648.09;5563911;31;32953;-56
2022/10/18 11:20:23;;;;;;;19.65;7.30;;;;;;;17.17;49.26;101648.31;5563031;31;33875;-56
2022/10/18 11:23:32;;;;;;;11.52;6.40;;;;;;;17.27;48.43;101650.84;5560102;31;33724;-56
2022/10/18 11:27:01;;;;;;;12.63;6.50;;;;;;;17.22;49.08;101650.94;5566338;32;32868;-58
2022/10/18 11:30:15;;;;;;;11.12;6.37;;;;;;;17.31;48.43;101641.03;5559370;32;32251;-56
2022/10/18 11:33:30;;;;;;;11.50;6.05;;;;;;;17.36;48.07;101642.88;5564102;32;33301;-57
2022/10/18 11:37:05;;;;;;;10.90;6.57;;;;;;;17.45;47.25;101632.97;5564394;32;33765;-56
2022/10/18 11:40:39;;;;;;;10.15;6.30;;;;;;;17.49;48.06;101633.19;5566988;32;33798;-56
2022/10/18 11:44:05;;;;;;;14.05;6.47;;;;;;;17.48;48.68;101626.97;5564445;32;34341;-56
2022/10/18 11:47:33;;;;;;;14.60;6.45;;;;;;;17.67;46.31;101617.97;5554773;32;33784;-57
2022/10/18 11:50:47;;;;;;;8.80;6.57;;;;;;;17.66;48.20;101617.16;5557459;32;33656;-56
2022/10/18 11:54:06;;;;;;;14.35;6.20;;;;;;;17.52;47.31;101608.19;5559052;32;33837;-56
2022/10/18 11:57:43;;;;;;;11.02;5.30;;;;;;;17.55;49.07;101602.19;5556126;32;32939;-56
2022/10/18 12:00:52;;;;;;;12.02;5.78;;;;;;;17.56;48.19;101595.66;5557871;32;33666;-56
2022/10/18 12:04:06;;;;;;;17.50;6.45;;;;;;;17.54;48.09;101590.53;5560878;32;33848;-57
2022/10/18 12:07:12;;;;;;;11.05;5.87;;;;;;;17.58;47.54;101577.16;5564528;32;34359;-57
2022/10/18 12:10:19;;;;;;;8.20;5.28;;;;;;;17.63;46.79;101574.38;5565919;32;33656;-58
2022/10/18 12:14:18;;;;;;;9.95;5.97;;;;;;;17.64;47.63;101570.56;5563154;32;34360;-56
2022/10/18 12:17:29;;;;;;;13.52;5.65;;;;;;;17.79;46.70;101570.31;5561060;32;32997;-54
2022/10/18 12:20:57;;;;;;;10.57;5.57;;;;;;;17.78;46.51;101548.91;5567750;32;33678;-55
2022/10/18 12:24:06;;;;;;;11.82;5.60;;;;;;;17.80;46.71;101552.94;5568657;31;33404;-55
2022/10/18 12:27:13;;;;;;;11.35;5.57;;;;;;;17.82;46.14;101553.44;5568831;32;33694;-55
2022/10/18 12:30:41;;;;;;;8.20;5.75;;;;;;;17.88;46.54;101542.47;5569489;32;34338;-55
2022/10/18 12:33:47;;;;;;;11.45;5.05;;;;;;;17.95;47.00;101545.63;5564291;32;33717;-55
2022/10/18 12:36:59;;;;;;;8.25;5.50;;;;;;;18.04;44.77;101530.22;5569218;32;34377;-55
2022/10/18 12:40:10;;;;;;;10.75;5.37;;;;;;;18.03;45.92;101531.34;5570183;32;34399;-56
2022/10/18 12:43:31;;;;;;;11.32;5.68;;;;;;;18.04;45.78;101532.94;5559483;32;33740;-55
2022/10/18 12:46:53;;;;;;;9.40;5.53;;;;;;;18.14;45.05;101516.44;5568371;32;34348;-55
2022/10/18 12:50:01;;;;;;;11.60;6.05;;;;;;;18.13;44.79;101514.06;5564190;32;33881;-55
2022/10/18 12:53:28;;;;;;;11.27;5.47;;;;;;;18.03;44.83;101515.06;5569581;32;33614;-55
2022/10/18 12:56:36;;;;;;;11.45;5.28;;;;;;;18.08;45.54;101498.69;5570437;32;34625;-55
2022/10/18 12:59:39;;;;;;;11.98;5.68;;;;;;;18.08;45.67;101496.78;5569654;32;34383;-55
2022/10/18 13:02:42;;;;;;;8.00;5.40;;;;;;;18.03;45.95;101496.88;5570497;32;33790;-56
2022/10/18 13:05:49;;;;;;;12.88;6.10;;;;;;;17.98;46.42;101494.28;5569697;32;33953;-55
2022/10/18 13:09:30;;;;;;;10.40;5.25;;;;;;;18.07;47.17;101495.16;5569280;32;33247;-55
2022/10/18 13:12:49;;;;;;;8.27;5.50;;;;;;;18.19;45.37;101491.13;5533079;32;33670;-55
2022/10/18 13:16:01;;;;;;;13.82;5.65;;;;;;;18.19;47.83;101483.00;5569885;32;31959;-55
2022/10/18 13:19:28;;;;;;;15.73;6.00;;;;;;;18.13;46.99;101474.16;5568441;32;33353;-55
2022/10/18 13:22:59;;;;;;;8.70;5.47;;;;;;;18.13;46.19;101468.72;5570248;32;34411;-56
2022/10/18 13:26:30;;;;;;;7.45;5.37;;;;;;;18.14;45.80;101473.03;5569579;32;33641;-56
2022/10/18 13:29:57;;;;;;;8.45;5.20;;;;;;;18.17;47.15;101475.13;5569906;32;34317;-56
2022/10/18 13:33:30;;;;;;;13.90;5.70;;;;;;;18.22;45.99;101466.09;5550603;32;34074;-56
2022/10/18 13:36:32;;;;;;;14.38;5.80;;;;;;;18.21;50.68;101467.19;5569279;32;34456;-56
2022/10/18 13:39:36;;;;;;;19.67;5.87;;;;;;;18.26;46.48;101470.59;5566994;32;34431;-56
2022/10/18 13:42:38;;;;;;;13.20;5.10;;;;;;;18.28;47.04;101471.09;5568795;32;33788;-55
2022/10/18 13:45:43;;;;;;;15.98;5.68;;;;;;;18.34;47.19;101466.34;5563555;32;33795;-55
2022/10/18 13:48:58;;;;;;;17.17;5.47;;;;;;;18.27;49.19;101474.13;5563135;32;33925;-55
2022/10/18 13:52:32;;;;;;;19.52;5.03;;;;;;;18.31;46.48;101465.06;5562959;32;34347;-55
2022/10/18 13:55:35;;;;;;;32.05;6.05;;;;;;;18.29;47.48;101461.06;5550359;32;34469;-55
2022/10/18 13:59:13;;;;;;;12.65;5.10;;;;;;;18.27;47.74;101458.62;5559259;32;34415;-56
2022/10/18 14:02:40;;;;;;;28.35;5.40;;;;;;;18.22;45.33;101450.63;5568140;32;33410;-56
2022/10/18 14:06:13;;;;;;;16.77;6.65;;;;;;;18.22;47.03;101447.91;5569178;32;34344;-55
2022/10/18 14:09:25;;;;;;;19.75;6.53;;;;;;;18.20;47.51;101447.37;5567799;32;33917;-55
2022/10/18 14:12:52;;;;;;;15.63;5.37;;;;;;;18.18;47.54;101433.34;5568759;32;34396;-56
2022/10/18 14:16:04;;;;;;;8.63;4.70;;;;;;;18.20;47.88;101439.25;5569643;32;33718;-55
2022/10/18 14:19:24;;;;;;;21.62;5.55;;;;;;;18.19;47.32;101434.94;5569482;32;34501;-56
2022/10/18 14:23:01;;;;;;;12.80;4.97;;;;;;;18.16;46.64;101432.03;5550252;32;33638;-55
2022/10/18 14:26:12;;;;;;;40.58;29.95;;;;;;;18.17;46.43;101429.00;5539439;32;33862;-55
2022/10/18 14:29:19;;;;;;;13.80;7.78;;;;;;;18.16;46.47;101427.41;5560148;32;34283;-56
2022/10/18 14:32:27;;;;;;;20.17;9.77;;;;;;;18.12;45.95;101428.34;5564838;32;33800;-56
2022/10/18 14:35:31;;;;;;;19.02;6.60;;;;;;;18.08;48.93;101418.09;5553173;32;33743;-55
2022/10/18 14:38:37;;;;;;;10.75;5.25;;;;;;;18.04;47.85;101424.41;5566192;32;34361;-55
2022/10/18 14:41:48;;;;;;;8.77;5.18;;;;;;;18.02;46.89;101416.59;5568798;32;33764;-56
2022/10/18 14:44:52;;;;;;;13.23;6.78;;;;;;;17.98;46.78;101412.06;5568821;32;33712;-55
2022/10/18 14:48:05;;;;;;;9.77;5.65;;;;;;;17.98;45.86;101406.63;5568619;32;33711;-55
2022/10/18 14:51:10;;;;;;;7.97;6.18;;;;;;;18.00;46.60;101404.44;5569402;32;34485;-55
2022/10/18 14:54:35;;;;;;;9.88;7.60;;;;;;;17.95;45.82;101397.22;5568526;32;33887;-55
2022/10/18 14:57:37;;;;;;;;;;;;;;;17.92;46.99;101392.41;5568876;32;33862;-56
2022/10/18 15:00:39;;;;;;;12.43;10.88;;;;;;;17.91;48.16;101390.78;5569101;32;34041;-55
2022/10/18 15:03:47;;;;;;;12.63;7.60;;;;;;;17.90;48.66;101391.09;5567363;32;33688;-55
2022/10/18 15:06:49;;;;;;;90.78;10.63;;;;;;;17.88;48.68;101380.56;5568075;32;33822;-56
2022/10/18 15:09:52;;;;;;;37.38;9.80;;;;;;;17.81;48.22;101380.97;5566203;32;34360;-55
2022/10/18 15:13:00;;;;;;;16.45;9.15;;;;;;;17.82;49.69;101377.16;5568619;32;33673;-56
2022/10/18 15:16:17;;;;;;;11.35;5.72;;;;;;;17.77;48.27;101376.44;5568937;32;34052;-55
2022/10/18 15:19:30;;;;;;;9.77;5.40;;;;;;;17.72;47.64;101382.75;5569079;32;34410;-55
2022/10/18 15:22:32;;;;;;;32.20;6.35;;;;;;;17.68;48.00;101376.34;5569330;32;33775;-55
